sensor_id;sensor_type;location;lat;lon;timestamp;P1;durP1;ratioP1;P2;durP2;ratioP2
73359;SDS011;63092;43.582;19.528;2023-03-13T00:01:12;32.47;;;17.25;;
73359;SDS011;63092;43.582;19.528;2023-03-13T00:03:46;32.45;;;17.10;;
73359;SDS011;63092;43.582;19.528;2023-03-13T00:06:13;34.05;;;17.55;;
73359;SDS011;63092;43.582;19.528;2023-03-13T00:08:39;24.42;;;13.43;;
73359;SDS011;63092;43.582;19.528;2023-03-13T00:11:06;23.35;;;13.65;;
73359;SDS011;63092;43.582;19.528;2023-03-13T00:13:33;23.15;;;12.90;;
73359;SDS011;63092;43.582;19.528;2023-03-13T00:16:09;21.00;;;11.65;;
73359;SDS011;63092;43.582;19.528;2023-03-13T00:18:37;25.77;;;13.00;;
73359;SDS011;63092;43.582;19.528;2023-03-13T00:21:04;24.70;;;12.48;;
73359;SDS011;63092;43.582;19.528;2023-03-13T00:23:31;26.25;;;14.02;;
73359;SDS011;63092;43.582;19.528;2023-03-13T00:25:58;28.20;;;14.45;;
73359;SDS011;63092;43.582;19.528;2023-03-13T00:28:29;34.90;;;17.85;;
73359;SDS011;63092;43.582;19.528;2023-03-13T00:33:33;27.08;;;13.80;;
73359;SDS011;63092;43.582;19.528;2023-03-13T00:36:08;24.23;;;12.27;;
73359;SDS011;63092;43.582;19.528;2023-03-13T00:38:35;24.42;;;12.05;;
73359;SDS011;63092;43.582;19.528;2023-03-13T00:41:08;18.00;;;10.23;;
73359;SDS011;63092;43.582;19.528;2023-03-13T00:43:36;24.20;;;11.70;;
73359;SDS011;63092;43.582;19.528;2023-03-13T00:46:02;30.85;;;13.40;;
73359;SDS011;63092;43.582;19.528;2023-03-13T00:48:29;20.92;;;11.18;;
73359;SDS011;63092;43.582;19.528;2023-03-13T00:50:55;19.80;;;11.02;;
73359;SDS011;63092;43.582;19.528;2023-03-13T00:53:21;17.80;;;9.50;;
73359;SDS011;63092;43.582;19.528;2023-03-13T00:55:58;17.98;;;9.40;;
73359;SDS011;63092;43.582;19.528;2023-03-13T00:58:27;17.48;;;8.60;;
73359;SDS011;63092;43.582;19.528;2023-03-13T01:00:54;17.00;;;7.88;;
73359;SDS011;63092;43.582;19.528;2023-03-13T01:03:20;20.60;;;10.18;;
73359;SDS011;63092;43.582;19.528;2023-03-13T01:05:56;17.92;;;9.05;;
73359;SDS011;63092;43.582;19.528;2023-03-13T01:08:22;17.77;;;9.43;;
73359;SDS011;63092;43.582;19.528;2023-03-13T01:10:48;18.85;;;8.98;;
73359;SDS011;63092;43.582;19.528;2023-03-13T01:13:14;15.27;;;8.70;;
73359;SDS011;63092;43.582;19.528;2023-03-13T01:15:40;15.07;;;8.32;;
73359;SDS011;63092;43.582;19.528;2023-03-13T01:18:05;21.55;;;11.05;;
73359;SDS011;63092;43.582;19.528;2023-03-13T01:20:31;24.83;;;13.18;;
73359;SDS011;63092;43.582;19.528;2023-03-13T01:22:57;32.17;;;13.88;;
73359;SDS011;63092;43.582;19.528;2023-03-13T01:25:22;30.52;;;14.80;;
73359;SDS011;63092;43.582;19.528;2023-03-13T01:27:48;26.10;;;13.95;;
73359;SDS011;63092;43.582;19.528;2023-03-13T01:30:14;28.27;;;15.05;;
73359;SDS011;63092;43.582;19.528;2023-03-13T01:32:39;25.67;;;13.85;;
73359;SDS011;63092;43.582;19.528;2023-03-13T01:35:05;21.30;;;10.13;;
73359;SDS011;63092;43.582;19.528;2023-03-13T01:37:32;16.17;;;8.30;;
73359;SDS011;63092;43.582;19.528;2023-03-13T01:39:57;16.90;;;9.05;;
73359;SDS011;63092;43.582;19.528;2023-03-13T01:42:23;19.50;;;9.75;;
73359;SDS011;63092;43.582;19.528;2023-03-13T01:44:53;22.02;;;10.23;;
73359;SDS011;63092;43.582;19.528;2023-03-13T01:47:20;26.20;;;12.43;;
73359;SDS011;63092;43.582;19.528;2023-03-13T01:49:46;26.20;;;13.20;;
73359;SDS011;63092;43.582;19.528;2023-03-13T01:52:22;18.50;;;10.43;;
73359;SDS011;63092;43.582;19.528;2023-03-13T01:55:08;18.17;;;9.65;;
73359;SDS011;63092;43.582;19.528;2023-03-13T01:57:39;17.90;;;8.10;;
73359;SDS011;63092;43.582;19.528;2023-03-13T02:00:10;15.40;;;8.18;;
73359;SDS011;63092;43.582;19.528;2023-03-13T02:02:42;16.40;;;8.43;;
73359;SDS011;63092;43.582;19.528;2023-03-13T02:05:10;19.85;;;8.90;;
73359;SDS011;63092;43.582;19.528;2023-03-13T02:07:39;24.30;;;11.45;;
73359;SDS011;63092;43.582;19.528;2023-03-13T02:10:11;30.38;;;14.15;;
73359;SDS011;63092;43.582;19.528;2023-03-13T02:12:39;32.75;;;16.25;;
73359;SDS011;63092;43.582;19.528;2023-03-13T02:17:42;21.60;;;11.77;;
73359;SDS011;63092;43.582;19.528;2023-03-13T02:20:10;22.27;;;11.57;;
73359;SDS011;63092;43.582;19.528;2023-03-13T02:25:12;15.18;;;7.68;;
73359;SDS011;63092;43.582;19.528;2023-03-13T02:27:52;17.67;;;7.90;;
73359;SDS011;63092;43.582;19.528;2023-03-13T02:30:24;14.85;;;7.30;;
73359;SDS011;63092;43.582;19.528;2023-03-13T02:32:50;13.93;;;6.60;;
73359;SDS011;63092;43.582;19.528;2023-03-13T02:35:16;13.05;;;6.55;;
73359;SDS011;63092;43.582;19.528;2023-03-13T02:37:44;15.05;;;8.10;;
73359;SDS011;63092;43.582;19.528;2023-03-13T02:40:14;14.10;;;7.68;;
73359;SDS011;63092;43.582;19.528;2023-03-13T02:42:42;17.00;;;8.63;;
73359;SDS011;63092;43.582;19.528;2023-03-13T02:45:12;13.45;;;7.10;;
73359;SDS011;63092;43.582;19.528;2023-03-13T02:47:39;13.82;;;6.63;;
73359;SDS011;63092;43.582;19.528;2023-03-13T02:50:05;12.75;;;6.43;;
73359;SDS011;63092;43.582;19.528;2023-03-13T02:52:32;13.27;;;6.30;;
73359;SDS011;63092;43.582;19.528;2023-03-13T02:55:09;12.27;;;6.10;;
73359;SDS011;63092;43.582;19.528;2023-03-13T02:57:39;12.00;;;5.65;;
73359;SDS011;63092;43.582;19.528;2023-03-13T03:00:05;12.27;;;5.72;;
73359;SDS011;63092;43.582;19.528;2023-03-13T03:02:36;11.82;;;5.93;;
73359;SDS011;63092;43.582;19.528;2023-03-13T03:05:02;14.93;;;6.57;;
73359;SDS011;63092;43.582;19.528;2023-03-13T03:07:28;13.02;;;6.35;;
73359;SDS011;63092;43.582;19.528;2023-03-13T03:09:54;15.90;;;8.65;;
73359;SDS011;63092;43.582;19.528;2023-03-13T03:12:19;17.23;;;8.43;;
73359;SDS011;63092;43.582;19.528;2023-03-13T03:14:45;16.23;;;6.93;;
73359;SDS011;63092;43.582;19.528;2023-03-13T03:17:11;14.30;;;6.45;;
73359;SDS011;63092;43.582;19.528;2023-03-13T03:19:37;13.30;;;6.28;;
73359;SDS011;63092;43.582;19.528;2023-03-13T03:22:02;12.95;;;6.70;;
73359;SDS011;63092;43.582;19.528;2023-03-13T03:24:28;11.93;;;6.25;;
73359;SDS011;63092;43.582;19.528;2023-03-13T03:26:53;13.85;;;6.80;;
73359;SDS011;63092;43.582;19.528;2023-03-13T03:29:19;10.85;;;5.95;;
73359;SDS011;63092;43.582;19.528;2023-03-13T03:31:45;12.15;;;6.25;;
73359;SDS011;63092;43.582;19.528;2023-03-13T03:34:10;12.38;;;6.03;;
73359;SDS011;63092;43.582;19.528;2023-03-13T03:36:36;15.63;;;7.03;;
73359;SDS011;63092;43.582;19.528;2023-03-13T03:39:02;12.57;;;6.15;;
73359;SDS011;63092;43.582;19.528;2023-03-13T03:41:29;12.05;;;6.70;;
73359;SDS011;63092;43.582;19.528;2023-03-13T03:43:55;14.73;;;6.88;;
73359;SDS011;63092;43.582;19.528;2023-03-13T03:46:20;12.82;;;6.72;;
73359;SDS011;63092;43.582;19.528;2023-03-13T03:48:46;13.55;;;7.22;;
73359;SDS011;63092;43.582;19.528;2023-03-13T03:51:12;10.00;;;5.97;;
73359;SDS011;63092;43.582;19.528;2023-03-13T03:53:38;15.90;;;6.80;;
73359;SDS011;63092;43.582;19.528;2023-03-13T03:56:04;14.02;;;7.30;;
73359;SDS011;63092;43.582;19.528;2023-03-13T03:58:29;14.52;;;6.97;;
73359;SDS011;63092;43.582;19.528;2023-03-13T04:00:56;11.55;;;6.22;;
73359;SDS011;63092;43.582;19.528;2023-03-13T04:03:22;12.50;;;6.18;;
73359;SDS011;63092;43.582;19.528;2023-03-13T04:05:48;17.52;;;8.95;;
73359;SDS011;63092;43.582;19.528;2023-03-13T04:08:14;15.75;;;8.57;;
73359;SDS011;63092;43.582;19.528;2023-03-13T04:10:39;16.48;;;8.90;;
73359;SDS011;63092;43.582;19.528;2023-03-13T04:13:05;14.38;;;8.88;;
73359;SDS011;63092;43.582;19.528;2023-03-13T04:15:31;14.88;;;8.68;;
73359;SDS011;63092;43.582;19.528;2023-03-13T04:17:56;15.23;;;8.38;;
73359;SDS011;63092;43.582;19.528;2023-03-13T04:20:22;20.27;;;10.10;;
73359;SDS011;63092;43.582;19.528;2023-03-13T04:22:48;13.35;;;7.68;;
73359;SDS011;63092;43.582;19.528;2023-03-13T04:25:13;19.13;;;8.02;;
73359;SDS011;63092;43.582;19.528;2023-03-13T04:27:39;16.52;;;7.85;;
73359;SDS011;63092;43.582;19.528;2023-03-13T04:30:05;18.10;;;9.65;;
73359;SDS011;63092;43.582;19.528;2023-03-13T04:32:31;17.55;;;9.35;;
73359;SDS011;63092;43.582;19.528;2023-03-13T04:34:57;11.85;;;7.15;;
73359;SDS011;63092;43.582;19.528;2023-03-13T04:37:22;13.13;;;6.75;;
73359;SDS011;63092;43.582;19.528;2023-03-13T04:39:48;13.35;;;7.25;;
73359;SDS011;63092;43.582;19.528;2023-03-13T04:42:14;11.10;;;6.20;;
73359;SDS011;63092;43.582;19.528;2023-03-13T04:44:40;13.73;;;6.10;;
73359;SDS011;63092;43.582;19.528;2023-03-13T04:47:05;10.60;;;6.00;;
73359;SDS011;63092;43.582;19.528;2023-03-13T04:49:31;11.18;;;6.22;;
73359;SDS011;63092;43.582;19.528;2023-03-13T04:51:57;12.18;;;6.85;;
73359;SDS011;63092;43.582;19.528;2023-03-13T04:54:22;16.17;;;8.25;;
73359;SDS011;63092;43.582;19.528;2023-03-13T04:56:48;15.23;;;7.72;;
73359;SDS011;63092;43.582;19.528;2023-03-13T04:59:14;14.23;;;7.55;;
73359;SDS011;63092;43.582;19.528;2023-03-13T05:01:40;16.48;;;8.23;;
73359;SDS011;63092;43.582;19.528;2023-03-13T05:04:07;16.05;;;8.02;;
73359;SDS011;63092;43.582;19.528;2023-03-13T05:06:33;12.73;;;6.13;;
73359;SDS011;63092;43.582;19.528;2023-03-13T05:08:59;13.52;;;6.50;;
73359;SDS011;63092;43.582;19.528;2023-03-13T05:11:26;17.30;;;9.23;;
73359;SDS011;63092;43.582;19.528;2023-03-13T05:13:51;23.42;;;12.63;;
73359;SDS011;63092;43.582;19.528;2023-03-13T05:16:17;20.27;;;9.50;;
73359;SDS011;63092;43.582;19.528;2023-03-13T05:18:43;23.75;;;12.57;;
73359;SDS011;63092;43.582;19.528;2023-03-13T05:21:09;22.42;;;12.75;;
73359;SDS011;63092;43.582;19.528;2023-03-13T05:23:35;22.83;;;12.18;;
73359;SDS011;63092;43.582;19.528;2023-03-13T05:26:01;17.15;;;9.80;;
73359;SDS011;63092;43.582;19.528;2023-03-13T05:28:27;20.70;;;10.43;;
73359;SDS011;63092;43.582;19.528;2023-03-13T05:30:53;19.83;;;9.85;;
73359;SDS011;63092;43.582;19.528;2023-03-13T05:33:18;18.17;;;9.43;;
73359;SDS011;63092;43.582;19.528;2023-03-13T05:35:45;17.15;;;9.15;;
73359;SDS011;63092;43.582;19.528;2023-03-13T05:38:11;22.48;;;9.95;;
73359;SDS011;63092;43.582;19.528;2023-03-13T05:40:37;19.45;;;9.57;;
73359;SDS011;63092;43.582;19.528;2023-03-13T05:43:03;16.52;;;9.05;;
73359;SDS011;63092;43.582;19.528;2023-03-13T05:45:28;20.63;;;9.00;;
73359;SDS011;63092;43.582;19.528;2023-03-13T05:47:54;19.52;;;10.82;;
73359;SDS011;63092;43.582;19.528;2023-03-13T05:50:22;19.65;;;8.40;;
73359;SDS011;63092;43.582;19.528;2023-03-13T05:52:49;21.10;;;9.45;;
73359;SDS011;63092;43.582;19.528;2023-03-13T05:55:15;23.50;;;11.25;;
73359;SDS011;63092;43.582;19.528;2023-03-13T05:57:45;24.70;;;12.55;;
73359;SDS011;63092;43.582;19.528;2023-03-13T06:00:12;21.83;;;10.48;;
73359;SDS011;63092;43.582;19.528;2023-03-13T06:02:39;21.73;;;11.00;;
73359;SDS011;63092;43.582;19.528;2023-03-13T06:05:05;22.23;;;11.20;;
73359;SDS011;63092;43.582;19.528;2023-03-13T06:07:31;20.70;;;11.05;;
73359;SDS011;63092;43.582;19.528;2023-03-13T06:09:57;20.50;;;11.52;;
73359;SDS011;63092;43.582;19.528;2023-03-13T06:12:22;19.40;;;10.85;;
73359;SDS011;63092;43.582;19.528;2023-03-13T06:14:48;21.77;;;10.85;;
73359;SDS011;63092;43.582;19.528;2023-03-13T06:17:14;25.65;;;12.57;;
73359;SDS011;63092;43.582;19.528;2023-03-13T06:19:39;23.58;;;13.07;;
73359;SDS011;63092;43.582;19.528;2023-03-13T06:22:05;21.70;;;9.80;;
73359;SDS011;63092;43.582;19.528;2023-03-13T06:24:31;20.52;;;8.90;;
73359;SDS011;63092;43.582;19.528;2023-03-13T06:26:56;51.75;;;25.13;;
73359;SDS011;63092;43.582;19.528;2023-03-13T06:29:22;46.88;;;24.88;;
73359;SDS011;63092;43.582;19.528;2023-03-13T06:31:48;30.40;;;14.00;;
73359;SDS011;63092;43.582;19.528;2023-03-13T06:34:15;35.97;;;18.45;;
73359;SDS011;63092;43.582;19.528;2023-03-13T06:36:41;42.90;;;21.23;;
73359;SDS011;63092;43.582;19.528;2023-03-13T06:39:07;51.88;;;29.73;;
73359;SDS011;63092;43.582;19.528;2023-03-13T06:41:34;85.22;;;39.08;;
73359;SDS011;63092;43.582;19.528;2023-03-13T06:44:00;26.27;;;13.75;;
73359;SDS011;63092;43.582;19.528;2023-03-13T06:46:25;24.88;;;14.20;;
73359;SDS011;63092;43.582;19.528;2023-03-13T06:48:51;40.63;;;20.15;;
73359;SDS011;63092;43.582;19.528;2023-03-13T06:51:19;27.83;;;14.50;;
73359;SDS011;63092;43.582;19.528;2023-03-13T06:53:46;25.77;;;15.55;;
73359;SDS011;63092;43.582;19.528;2023-03-13T06:56:12;25.33;;;14.80;;
73359;SDS011;63092;43.582;19.528;2023-03-13T06:58:38;21.27;;;12.50;;
73359;SDS011;63092;43.582;19.528;2023-03-13T07:01:08;21.90;;;12.30;;
73359;SDS011;63092;43.582;19.528;2023-03-13T07:03:35;26.65;;;14.05;;
73359;SDS011;63092;43.582;19.528;2023-03-13T07:06:02;24.52;;;13.20;;
73359;SDS011;63092;43.582;19.528;2023-03-13T07:08:29;22.80;;;13.45;;
73359;SDS011;63092;43.582;19.528;2023-03-13T07:10:59;17.05;;;10.40;;
73359;SDS011;63092;43.582;19.528;2023-03-13T07:13:26;17.63;;;10.30;;
73359;SDS011;63092;43.582;19.528;2023-03-13T07:15:52;28.67;;;15.40;;
73359;SDS011;63092;43.582;19.528;2023-03-13T07:18:18;36.08;;;21.45;;
73359;SDS011;63092;43.582;19.528;2023-03-13T07:20:44;48.90;;;31.73;;
73359;SDS011;63092;43.582;19.528;2023-03-13T07:23:15;27.20;;;20.38;;
73359;SDS011;63092;43.582;19.528;2023-03-13T07:25:41;17.10;;;9.70;;
73359;SDS011;63092;43.582;19.528;2023-03-13T07:28:06;12.73;;;7.65;;
73359;SDS011;63092;43.582;19.528;2023-03-13T07:30:32;15.90;;;8.63;;
73359;SDS011;63092;43.582;19.528;2023-03-13T07:32:58;16.23;;;9.07;;
73359;SDS011;63092;43.582;19.528;2023-03-13T07:35:23;19.02;;;10.70;;
73359;SDS011;63092;43.582;19.528;2023-03-13T07:37:49;16.33;;;8.63;;
73359;SDS011;63092;43.582;19.528;2023-03-13T07:40:16;13.15;;;8.20;;
73359;SDS011;63092;43.582;19.528;2023-03-13T07:42:41;14.10;;;8.13;;
73359;SDS011;63092;43.582;19.528;2023-03-13T07:45:08;13.38;;;8.38;;
73359;SDS011;63092;43.582;19.528;2023-03-13T07:47:34;12.80;;;6.82;;
73359;SDS011;63092;43.582;19.528;2023-03-13T07:50:00;13.27;;;7.75;;
73359;SDS011;63092;43.582;19.528;2023-03-13T07:52:26;18.15;;;8.45;;
73359;SDS011;63092;43.582;19.528;2023-03-13T07:54:52;22.75;;;10.95;;
73359;SDS011;63092;43.582;19.528;2023-03-13T07:57:18;26.95;;;13.23;;
73359;SDS011;63092;43.582;19.528;2023-03-13T07:59:45;63.70;;;28.73;;
73359;SDS011;63092;43.582;19.528;2023-03-13T08:02:11;31.50;;;18.38;;
73359;SDS011;63092;43.582;19.528;2023-03-13T08:04:40;47.08;;;24.73;;
73359;SDS011;63092;43.582;19.528;2023-03-13T08:07:07;21.75;;;13.90;;
73359;SDS011;63092;43.582;19.528;2023-03-13T08:09:33;16.23;;;10.75;;
73359;SDS011;63092;43.582;19.528;2023-03-13T08:11:59;15.00;;;9.52;;
73359;SDS011;63092;43.582;19.528;2023-03-13T08:14:24;9.05;;;5.65;;
73359;SDS011;63092;43.582;19.528;2023-03-13T08:16:51;20.00;;;9.18;;
73359;SDS011;63092;43.582;19.528;2023-03-13T08:19:17;12.57;;;7.38;;
73359;SDS011;63092;43.582;19.528;2023-03-13T08:21:42;14.05;;;7.18;;
73359;SDS011;63092;43.582;19.528;2023-03-13T08:24:09;9.80;;;5.97;;
73359;SDS011;63092;43.582;19.528;2023-03-13T08:26:37;12.25;;;6.43;;
73359;SDS011;63092;43.582;19.528;2023-03-13T08:29:06;19.27;;;11.60;;
73359;SDS011;63092;43.582;19.528;2023-03-13T08:31:37;13.88;;;7.80;;
73359;SDS011;63092;43.582;19.528;2023-03-13T08:34:14;19.85;;;11.60;;
73359;SDS011;63092;43.582;19.528;2023-03-13T08:36:41;22.35;;;13.07;;
73359;SDS011;63092;43.582;19.528;2023-03-13T08:39:08;9.23;;;5.50;;
73359;SDS011;63092;43.582;19.528;2023-03-13T08:41:36;10.77;;;5.78;;
73359;SDS011;63092;43.582;19.528;2023-03-13T08:44:04;9.48;;;5.22;;
73359;SDS011;63092;43.582;19.528;2023-03-13T08:46:31;6.95;;;4.10;;
73359;SDS011;63092;43.582;19.528;2023-03-13T08:48:58;7.80;;;3.90;;
73359;SDS011;63092;43.582;19.528;2023-03-13T08:51:25;9.75;;;5.07;;
73359;SDS011;63092;43.582;19.528;2023-03-13T08:53:52;8.02;;;4.65;;
73359;SDS011;63092;43.582;19.528;2023-03-13T08:56:20;6.55;;;4.10;;
73359;SDS011;63092;43.582;19.528;2023-03-13T08:58:50;8.82;;;5.20;;
73359;SDS011;63092;43.582;19.528;2023-03-13T09:01:18;9.70;;;5.18;;
73359;SDS011;63092;43.582;19.528;2023-03-13T09:03:44;8.68;;;4.20;;
73359;SDS011;63092;43.582;19.528;2023-03-13T09:06:10;9.82;;;4.50;;
73359;SDS011;63092;43.582;19.528;2023-03-13T09:08:37;9.25;;;5.18;;
73359;SDS011;63092;43.582;19.528;2023-03-13T09:11:04;12.75;;;8.43;;
73359;SDS011;63092;43.582;19.528;2023-03-13T09:13:35;17.55;;;8.90;;
73359;SDS011;63092;43.582;19.528;2023-03-13T09:16:04;6.25;;;3.50;;
73359;SDS011;63092;43.582;19.528;2023-03-13T09:18:32;8.82;;;4.38;;
73359;SDS011;63092;43.582;19.528;2023-03-13T09:20:58;11.60;;;5.93;;
73359;SDS011;63092;43.582;19.528;2023-03-13T09:23:25;9.70;;;4.60;;
73359;SDS011;63092;43.582;19.528;2023-03-13T09:25:52;11.75;;;6.18;;
73359;SDS011;63092;43.582;19.528;2023-03-13T09:28:18;10.10;;;5.13;;
73359;SDS011;63092;43.582;19.528;2023-03-13T09:30:44;13.95;;;6.72;;
73359;SDS011;63092;43.582;19.528;2023-03-13T09:33:10;10.70;;;5.75;;
73359;SDS011;63092;43.582;19.528;2023-03-13T09:35:39;8.65;;;5.30;;
73359;SDS011;63092;43.582;19.528;2023-03-13T09:38:05;9.10;;;4.82;;
73359;SDS011;63092;43.582;19.528;2023-03-13T09:40:36;11.43;;;6.20;;
73359;SDS011;63092;43.582;19.528;2023-03-13T09:43:10;18.90;;;11.30;;
73359;SDS011;63092;43.582;19.528;2023-03-13T09:48:23;14.80;;;8.70;;
73359;SDS011;63092;43.582;19.528;2023-03-13T09:53:45;9.20;;;5.25;;
73359;SDS011;63092;43.582;19.528;2023-03-13T09:56:18;6.90;;;3.65;;
73359;SDS011;63092;43.582;19.528;2023-03-13T09:58:54;11.82;;;6.28;;
73359;SDS011;63092;43.582;19.528;2023-03-13T10:01:27;15.45;;;8.93;;
73359;SDS011;63092;43.582;19.528;2023-03-13T10:03:57;14.30;;;8.52;;
73359;SDS011;63092;43.582;19.528;2023-03-13T10:06:33;15.13;;;9.00;;
73359;SDS011;63092;43.582;19.528;2023-03-13T10:09:08;12.73;;;6.47;;
73359;SDS011;63092;43.582;19.528;2023-03-13T10:12:01;8.73;;;4.32;;
73359;SDS011;63092;43.582;19.528;2023-03-13T10:19:55;7.40;;;3.15;;
73359;SDS011;63092;43.582;19.528;2023-03-13T10:22:33;10.68;;;5.70;;
73359;SDS011;63092;43.582;19.528;2023-03-13T10:25:35;8.75;;;4.68;;
73359;SDS011;63092;43.582;19.528;2023-03-13T10:28:00;13.50;;;6.72;;
73359;SDS011;63092;43.582;19.528;2023-03-13T10:30:27;8.25;;;3.75;;
73359;SDS011;63092;43.582;19.528;2023-03-13T10:35:32;6.28;;;3.50;;
73359;SDS011;63092;43.582;19.528;2023-03-13T10:38:10;6.50;;;3.10;;
73359;SDS011;63092;43.582;19.528;2023-03-13T10:40:38;6.22;;;3.33;;
73359;SDS011;63092;43.582;19.528;2023-03-13T10:43:26;11.75;;;4.75;;
73359;SDS011;63092;43.582;19.528;2023-03-13T10:45:51;11.25;;;7.15;;
73359;SDS011;63092;43.582;19.528;2023-03-13T10:48:18;10.10;;;5.28;;
73359;SDS011;63092;43.582;19.528;2023-03-13T10:50:50;5.55;;;3.78;;
73359;SDS011;63092;43.582;19.528;2023-03-13T10:55:57;5.30;;;2.67;;
73359;SDS011;63092;43.582;19.528;2023-03-13T10:59:01;7.72;;;3.20;;
73359;SDS011;63092;43.582;19.528;2023-03-13T11:01:24;6.18;;;2.70;;
73359;SDS011;63092;43.582;19.528;2023-03-13T11:03:53;5.20;;;2.70;;
73359;SDS011;63092;43.582;19.528;2023-03-13T11:06:28;6.60;;;3.70;;
73359;SDS011;63092;43.582;19.528;2023-03-13T11:09:17;7.60;;;3.60;;
73359;SDS011;63092;43.582;19.528;2023-03-13T11:11:46;5.38;;;3.05;;
73359;SDS011;63092;43.582;19.528;2023-03-13T11:14:19;9.93;;;3.88;;
73359;SDS011;63092;43.582;19.528;2023-03-13T11:27:33;8.65;;;3.58;;
73359;SDS011;63092;43.582;19.528;2023-03-13T11:33:03;8.52;;;4.30;;
73359;SDS011;63092;43.582;19.528;2023-03-13T11:35:49;6.53;;;3.40;;
73359;SDS011;63092;43.582;19.528;2023-03-13T11:43:41;9.77;;;4.30;;
73359;SDS011;63092;43.582;19.528;2023-03-13T11:46:32;7.93;;;2.83;;
73359;SDS011;63092;43.582;19.528;2023-03-13T11:52:18;7.53;;;4.55;;
73359;SDS011;63092;43.582;19.528;2023-03-13T11:57:54;13.88;;;8.23;;
73359;SDS011;63092;43.582;19.528;2023-03-13T12:00:30;9.82;;;5.22;;
73359;SDS011;63092;43.582;19.528;2023-03-13T12:05:47;11.85;;;5.43;;
73359;SDS011;63092;43.582;19.528;2023-03-13T12:11:07;10.40;;;3.40;;
73359;SDS011;63092;43.582;19.528;2023-03-13T12:13:35;9.05;;;5.43;;
73359;SDS011;63092;43.582;19.528;2023-03-13T12:16:27;6.75;;;4.07;;
73359;SDS011;63092;43.582;19.528;2023-03-13T12:18:56;8.32;;;4.30;;
73359;SDS011;63092;43.582;19.528;2023-03-13T12:21:22;6.65;;;3.30;;
73359;SDS011;63092;43.582;19.528;2023-03-13T12:32:23;6.40;;;3.60;;
73359;SDS011;63092;43.582;19.528;2023-03-13T12:37:44;5.95;;;3.05;;
73359;SDS011;63092;43.582;19.528;2023-03-13T12:43:38;7.60;;;3.67;;
73359;SDS011;63092;43.582;19.528;2023-03-13T12:59:47;5.85;;;3.28;;
73359;SDS011;63092;43.582;19.528;2023-03-13T13:02:20;6.47;;;3.38;;
73359;SDS011;63092;43.582;19.528;2023-03-13T13:04:49;6.07;;;3.55;;
73359;SDS011;63092;43.582;19.528;2023-03-13T13:07:24;6.07;;;2.85;;
73359;SDS011;63092;43.582;19.528;2023-03-13T13:12:33;10.00;;;4.10;;
73359;SDS011;63092;43.582;19.528;2023-03-13T13:15:01;7.38;;;4.07;;
73359;SDS011;63092;43.582;19.528;2023-03-13T13:17:39;6.18;;;3.30;;
73359;SDS011;63092;43.582;19.528;2023-03-13T13:20:43;11.18;;;5.53;;
73359;SDS011;63092;43.582;19.528;2023-03-13T13:24:03;10.23;;;5.70;;
73359;SDS011;63092;43.582;19.528;2023-03-13T13:37:01;10.63;;;5.78;;
73359;SDS011;63092;43.582;19.528;2023-03-13T13:41:59;10.20;;;5.18;;
73359;SDS011;63092;43.582;19.528;2023-03-13T13:44:28;8.85;;;4.50;;
73359;SDS011;63092;43.582;19.528;2023-03-13T13:46:55;18.02;;;8.77;;
73359;SDS011;63092;43.582;19.528;2023-03-13T13:49:25;10.45;;;5.30;;
73359;SDS011;63092;43.582;19.528;2023-03-13T13:54:33;5.95;;;3.20;;
73359;SDS011;63092;43.582;19.528;2023-03-13T13:57:20;5.38;;;2.05;;
73359;SDS011;63092;43.582;19.528;2023-03-13T13:59:49;8.55;;;3.20;;
73359;SDS011;63092;43.582;19.528;2023-03-13T14:02:17;7.90;;;3.30;;
73359;SDS011;63092;43.582;19.528;2023-03-13T14:05:00;9.50;;;4.18;;
73359;SDS011;63092;43.582;19.528;2023-03-13T14:07:36;6.10;;;2.60;;
73359;SDS011;63092;43.582;19.528;2023-03-13T14:10:18;10.38;;;4.47;;
73359;SDS011;63092;43.582;19.528;2023-03-13T14:15:40;6.53;;;2.85;;
73359;SDS011;63092;43.582;19.528;2023-03-13T14:20:59;3.28;;;1.70;;
73359;SDS011;63092;43.582;19.528;2023-03-13T14:23:45;6.90;;;2.38;;
73359;SDS011;63092;43.582;19.528;2023-03-13T14:28:55;6.85;;;3.88;;
73359;SDS011;63092;43.582;19.528;2023-03-13T14:33:55;3.28;;;1.60;;
73359;SDS011;63092;43.582;19.528;2023-03-13T14:36:22;12.75;;;2.10;;
73359;SDS011;63092;43.582;19.528;2023-03-13T14:38:52;5.10;;;1.60;;
73359;SDS011;63092;43.582;19.528;2023-03-13T14:41:23;3.72;;;1.65;;
73359;SDS011;63092;43.582;19.528;2023-03-13T14:44:03;5.30;;;1.73;;
73359;SDS011;63092;43.582;19.528;2023-03-13T14:46:32;7.90;;;4.28;;
73359;SDS011;63092;43.582;19.528;2023-03-13T14:49:33;8.50;;;4.78;;
73359;SDS011;63092;43.582;19.528;2023-03-13T14:52:02;12.05;;;8.35;;
73359;SDS011;63092;43.582;19.528;2023-03-13T14:54:31;28.90;;;17.27;;
73359;SDS011;63092;43.582;19.528;2023-03-13T14:57:02;8.15;;;5.13;;
73359;SDS011;63092;43.582;19.528;2023-03-13T14:59:40;12.57;;;8.23;;
73359;SDS011;63092;43.582;19.528;2023-03-13T15:02:23;18.95;;;11.43;;
73359;SDS011;63092;43.582;19.528;2023-03-13T15:07:26;21.05;;;11.05;;
73359;SDS011;63092;43.582;19.528;2023-03-13T15:10:02;20.38;;;9.68;;
73359;SDS011;63092;43.582;19.528;2023-03-13T15:12:42;22.67;;;8.15;;
73359;SDS011;63092;43.582;19.528;2023-03-13T15:15:09;21.63;;;11.00;;
73359;SDS011;63092;43.582;19.528;2023-03-13T15:17:36;21.33;;;9.48;;
73359;SDS011;63092;43.582;19.528;2023-03-13T15:20:01;19.77;;;9.88;;
73359;SDS011;63092;43.582;19.528;2023-03-13T15:22:30;90.20;;;34.97;;
73359;SDS011;63092;43.582;19.528;2023-03-13T15:24:57;93.68;;;38.47;;
73359;SDS011;63092;43.582;19.528;2023-03-13T15:27:23;50.35;;;24.65;;
73359;SDS011;63092;43.582;19.528;2023-03-13T15:29:50;37.55;;;16.02;;
73359;SDS011;63092;43.582;19.528;2023-03-13T15:32:26;37.30;;;19.15;;
73359;SDS011;63092;43.582;19.528;2023-03-13T15:37:26;32.97;;;17.70;;
73359;SDS011;63092;43.582;19.528;2023-03-13T15:39:54;26.45;;;14.23;;
73359;SDS011;63092;43.582;19.528;2023-03-13T15:42:21;19.90;;;11.77;;
73359;SDS011;63092;43.582;19.528;2023-03-13T15:44:48;44.83;;;24.23;;
73359;SDS011;63092;43.582;19.528;2023-03-13T15:47:14;27.48;;;16.00;;
73359;SDS011;63092;43.582;19.528;2023-03-13T15:49:43;29.63;;;15.80;;
73359;SDS011;63092;43.582;19.528;2023-03-13T15:52:16;33.10;;;13.95;;
73359;SDS011;63092;43.582;19.528;2023-03-13T15:54:46;31.95;;;15.80;;
73359;SDS011;63092;43.582;19.528;2023-03-13T15:57:31;26.02;;;8.75;;
73359;SDS011;63092;43.582;19.528;2023-03-13T15:59:57;24.50;;;10.02;;
73359;SDS011;63092;43.582;19.528;2023-03-13T16:02:23;53.67;;;29.80;;
73359;SDS011;63092;43.582;19.528;2023-03-13T16:04:49;58.97;;;27.55;;
73359;SDS011;63092;43.582;19.528;2023-03-13T16:07:16;43.35;;;20.70;;
73359;SDS011;63092;43.582;19.528;2023-03-13T16:09:44;40.55;;;20.60;;
73359;SDS011;63092;43.582;19.528;2023-03-13T16:12:10;36.90;;;19.73;;
73359;SDS011;63092;43.582;19.528;2023-03-13T16:14:37;62.78;;;30.33;;
73359;SDS011;63092;43.582;19.528;2023-03-13T16:17:09;49.60;;;24.48;;
73359;SDS011;63092;43.582;19.528;2023-03-13T16:19:41;54.13;;;25.52;;
73359;SDS011;63092;43.582;19.528;2023-03-13T16:22:08;51.90;;;25.98;;
73359;SDS011;63092;43.582;19.528;2023-03-13T16:24:34;44.15;;;23.52;;
73359;SDS011;63092;43.582;19.528;2023-03-13T16:27:00;42.95;;;22.13;;
73359;SDS011;63092;43.582;19.528;2023-03-13T16:29:25;59.25;;;27.40;;